createdAt,value
2018-05-27T00:00:07.903Z,97.76
2018-05-27T00:01:07.967Z,97.09
2018-05-27T00:02:07.953Z,97.04
2018-05-27T00:03:22.636Z,97.04
2018-05-27T00:04:08.012Z,97.09
2018-05-27T00:05:08.023Z,97.09
2018-05-27T00:06:08.050Z,97.33
2018-05-27T00:07:08.090Z,97.52
2018-05-27T00:08:07.841Z,97.81
2018-05-27T00:09:08.146Z,97.81
2018-05-27T00:10:07.888Z,98.48
2018-05-27T00:11:08.186Z,98.19
2018-05-27T00:12:08.191Z,98.57
2018-05-27T00:13:08.220Z,98.28
2018-05-27T00:14:08.246Z,98.48
2018-05-27T00:15:08.281Z,98.96
2018-05-27T00:16:08.042Z,99.63
2018-05-27T00:17:08.368Z,99.63
2018-05-27T00:18:08.357Z,99.91
2018-05-27T00:19:23.028Z,99.99
2018-05-27T00:20:08.402Z,99.99
2018-05-27T00:21:08.410Z,99.99
2018-05-27T00:22:08.468Z,99.99
2018-05-27T00:23:08.473Z,99.99
2018-05-27T00:24:08.485Z,99.99
2018-05-27T00:25:08.516Z,99.99
2018-05-27T00:26:08.632Z,99.99
2018-05-27T00:27:08.571Z,99.99
2018-05-27T00:28:08.574Z,99.99
2018-05-27T00:29:08.616Z,99.99
2018-05-27T00:31:08.664Z,99.99
2018-05-27T00:32:08.671Z,99.99
2018-05-27T00:33:08.714Z,99.99
2018-05-27T00:34:08.474Z,99.99
2018-05-27T00:35:23.407Z,99.99
2018-05-27T00:36:08.767Z,99.99
2018-05-27T00:37:08.532Z,99.99
2018-05-27T00:38:08.832Z,99.99
2018-05-27T00:39:08.841Z,99.99
2018-05-27T00:40:08.881Z,99.99
2018-05-27T00:41:08.884Z,99.99
2018-05-27T00:43:08.932Z,99.99
2018-05-27T00:44:08.960Z,99.99
2018-05-27T00:45:08.995Z,99.99
2018-05-27T00:46:08.758Z,99.99
2018-05-27T00:47:09.047Z,99.99
2018-05-27T00:48:09.051Z,99.99
2018-05-27T00:49:09.093Z,99.99
2018-05-27T00:50:23.760Z,99.99
2018-05-27T00:51:09.127Z,99.99
2018-05-27T00:52:09.149Z,99.99
2018-05-27T00:53:09.188Z,99.99
2018-05-27T00:54:09.212Z,99.99
2018-05-27T00:55:09.224Z,99.99
2018-05-27T00:56:09.257Z,99.99
2018-05-27T00:57:09.282Z,99.99
2018-05-27T00:59:09.333Z,99.99
2018-05-27T01:00:09.077Z,99.99
2018-05-27T01:01:09.362Z,99.99
2018-05-27T01:02:09.402Z,99.99
2018-05-27T01:03:09.412Z,99.99
2018-05-27T01:04:09.449Z,99.99
2018-05-27T01:05:09.459Z,99.99
2018-05-27T01:06:09.506Z,99.99
2018-05-27T01:07:09.502Z,99.99
2018-05-27T01:08:09.534Z,99.99
2018-05-27T01:09:09.553Z,99.99
2018-05-27T01:10:09.590Z,99.99
2018-05-27T01:11:09.352Z,99.99
2018-05-27T01:12:09.626Z,99.99
2018-05-27T01:15:09.699Z,99.99
2018-05-27T01:16:09.727Z,99.99
2018-05-27T01:17:09.494Z,99.99
2018-05-27T01:18:09.830Z,99.99
2018-05-27T01:19:09.786Z,99.99
2018-05-27T01:20:09.830Z,99.99
2018-05-27T01:21:09.840Z,99.99
2018-05-27T01:22:24.520Z,99.99
2018-05-27T01:23:09.636Z,99.99
2018-05-27T01:24:09.651Z,99.99
2018-05-27T01:25:09.674Z,99.99
2018-05-27T01:26:09.969Z,99.99
2018-05-27T01:27:09.977Z,99.99
2018-05-27T01:28:10.123Z,99.99
2018-05-27T01:29:10.021Z,99.99
2018-05-27T01:30:10.064Z,99.99
2018-05-27T01:31:10.070Z,99.99
2018-05-27T01:34:10.138Z,99.99
2018-05-27T01:35:10.182Z,99.99
2018-05-27T01:36:10.186Z,99.99
2018-05-27T01:37:09.965Z,99.99
2018-05-27T01:38:24.896Z,99.99
2018-05-27T01:39:10.277Z,99.99
2018-05-27T01:40:10.283Z,99.99
2018-05-27T01:41:10.323Z,99.99
2018-05-27T01:42:10.329Z,99.99
2018-05-27T01:43:10.105Z,99.99
2018-05-27T01:44:10.387Z,99.99
2018-05-27T01:45:10.153Z,99.99
2018-05-27T01:46:10.436Z,99.99
2018-05-27T01:47:10.463Z,99.99
2018-05-27T01:48:10.469Z,99.99
2018-05-27T01:49:10.502Z,99.99
2018-05-27T01:50:10.529Z,99.99
2018-05-27T01:51:10.557Z,99.99
2018-05-27T01:52:10.306Z,99.99
2018-05-27T01:53:10.343Z,99.99
2018-05-27T01:54:25.270Z,99.99
2018-05-27T01:55:10.651Z,99.99
2018-05-27T01:56:10.674Z,99.99
2018-05-27T01:57:10.687Z,99.99
2018-05-27T01:58:10.719Z,99.99
2018-05-27T01:59:10.727Z,99.99
2018-05-27T02:00:10.776Z,99.99
2018-05-27T02:01:10.776Z,99.99
2018-05-27T02:02:10.817Z,99.99
2018-05-27T02:03:10.843Z,99.99
2018-05-27T02:04:10.862Z,99.99
2018-05-27T02:06:10.898Z,99.99
2018-05-27T02:07:10.932Z,99.99
2018-05-27T02:08:10.684Z,99.99
2018-05-27T02:09:10.979Z,99.99
2018-05-27T02:10:25.645Z,99.99
2018-05-27T02:11:11.028Z,99.99
2018-05-27T02:12:11.031Z,99.99
2018-05-27T02:13:11.068Z,99.99
2018-05-27T02:14:10.824Z,99.99
2018-05-27T02:15:11.119Z,99.99
2018-05-27T02:16:11.145Z,99.99
2018-05-27T02:18:11.189Z,99.99
2018-05-27T02:19:11.212Z,99.99
2018-05-27T02:20:11.224Z,99.99
2018-05-27T02:21:11.260Z,99.99
2018-05-27T02:22:11.269Z,99.99
2018-05-27T02:23:11.288Z,99.99
2018-05-27T02:24:11.335Z,99.99
2018-05-27T02:25:25.996Z,99.99
2018-05-27T02:26:11.380Z,99.99
2018-05-27T02:27:11.399Z,99.99
2018-05-27T02:29:11.448Z,99.99
2018-05-27T02:30:11.456Z,99.99
2018-05-27T02:31:11.481Z,99.99
2018-05-27T02:32:11.256Z,99.99
2018-05-27T02:33:11.528Z,99.99
2018-05-27T02:34:11.570Z,99.99
2018-05-27T02:35:11.569Z,99.99
2018-05-27T02:37:11.358Z,99.99
2018-05-27T02:38:11.644Z,99.99
2018-05-27T02:39:11.667Z,99.99
2018-05-27T02:40:11.441Z,99.99
2018-05-27T02:41:11.726Z,99.99
2018-05-27T02:42:11.785Z,99.99
2018-05-27T02:43:11.768Z,99.99
2018-05-27T02:44:11.777Z,99.99
2018-05-27T02:45:11.818Z,99.99
2018-05-27T02:46:11.830Z,99.99
2018-05-27T02:47:11.875Z,99.99
2018-05-27T02:48:11.889Z,99.99
2018-05-27T02:50:11.934Z,99.99
2018-05-27T02:53:12.002Z,99.99
2018-05-27T02:54:12.021Z,99.99
2018-05-27T02:55:12.033Z,99.99
2018-05-27T02:56:12.072Z,99.99
2018-05-27T02:57:26.737Z,99.99
2018-05-27T02:58:12.124Z,99.99
2018-05-27T02:59:12.136Z,99.99
2018-05-27T03:00:12.172Z,99.99
2018-05-27T03:01:12.169Z,99.99
2018-05-27T03:02:12.198Z,99.99
2018-05-27T03:03:12.232Z,99.99
2018-05-27T03:04:12.256Z,99.99
2018-05-27T03:07:12.330Z,99.99
2018-05-27T03:08:12.331Z,99.99
2018-05-27T03:09:12.375Z,99.99
2018-05-27T03:10:12.393Z,99.99
2018-05-27T03:11:12.406Z,99.99
2018-05-27T03:12:12.442Z,99.99
2018-05-27T03:13:27.107Z,99.99
2018-05-27T03:14:12.489Z,99.99
2018-05-27T03:15:12.490Z,99.99
2018-05-27T03:16:12.538Z,99.99
2018-05-27T03:17:12.539Z,99.99
2018-05-27T03:18:12.318Z,99.99
2018-05-27T03:20:12.624Z,99.99
2018-05-27T03:21:12.648Z,99.99
2018-05-27T03:22:12.671Z,99.99
2018-05-27T03:23:12.696Z,99.99
2018-05-27T03:24:12.441Z,99.99
2018-05-27T03:25:12.473Z,99.99
2018-05-27T03:26:12.485Z,99.99
2018-05-27T03:27:12.786Z,99.99
2018-05-27T03:28:12.794Z,99.99
2018-05-27T03:29:27.482Z,99.99
2018-05-27T03:30:12.841Z,99.99
2018-05-27T03:31:12.888Z,99.99
2018-05-27T03:32:12.903Z,99.99
2018-05-27T03:33:12.924Z,99.99
2018-05-27T03:34:12.931Z,99.99
2018-05-27T03:35:12.708Z,99.99
2018-05-27T03:36:12.976Z,99.99
2018-05-27T03:37:13.018Z,99.99
2018-05-27T03:40:13.090Z,99.99
2018-05-27T03:41:13.091Z,99.99
2018-05-27T03:42:13.128Z,99.99
2018-05-27T03:43:13.158Z,99.99
2018-05-27T03:44:13.161Z,99.99
2018-05-27T03:45:27.850Z,99.99
2018-05-27T03:46:13.211Z,99.99
2018-05-27T03:47:13.244Z,99.99
2018-05-27T03:48:13.005Z,99.99
2018-05-27T03:49:13.032Z,99.99
2018-05-27T03:50:13.318Z,99.99
2018-05-27T03:51:13.323Z,99.99
2018-05-27T03:52:13.365Z,99.99
2018-05-27T03:53:13.372Z,99.99
2018-05-27T03:54:13.412Z,99.99
2018-05-27T03:55:13.417Z,99.99
2018-05-27T03:56:13.465Z,99.99
2018-05-27T03:57:13.477Z,99.99
2018-05-27T03:58:13.505Z,99.99
2018-05-27T03:59:13.253Z,99.99
2018-05-27T04:00:28.196Z,99.99
2018-05-27T04:01:13.576Z,99.99
2018-05-27T04:02:13.580Z,99.99
2018-05-27T04:03:13.622Z,99.99
2018-05-27T04:04:13.649Z,99.99
2018-05-27T04:05:13.668Z,99.99
2018-05-27T04:06:13.675Z,99.99
2018-05-27T04:08:13.740Z,99.99
2018-05-27T04:10:13.891Z,99.99
2018-05-27T04:11:13.533Z,99.99
2018-05-27T04:12:13.832Z,99.99
2018-05-27T04:13:13.856Z,99.99
2018-05-27T04:14:13.883Z,99.99
2018-05-27T04:15:13.889Z,99.99
2018-05-27T04:16:13.929Z,99.99
2018-05-27T04:17:13.937Z,99.99
2018-05-27T04:18:13.962Z,99.99
2018-05-27T04:19:13.982Z,99.99
2018-05-27T04:20:13.760Z,99.99
2018-05-27T04:21:13.788Z,99.99
2018-05-27T04:22:14.054Z,99.99
2018-05-27T04:23:14.092Z,99.99
2018-05-27T04:24:13.843Z,99.99
2018-05-27T04:25:14.148Z,99.99
2018-05-27T04:26:14.149Z,99.99
2018-05-27T04:27:14.194Z,99.99
2018-05-27T04:28:13.948Z,99.99
2018-05-27T04:29:14.238Z,99.99
2018-05-27T04:30:14.247Z,99.99
2018-05-27T04:31:14.269Z,99.99
2018-05-27T04:32:28.958Z,99.99
2018-05-27T04:33:14.321Z,99.99
2018-05-27T04:34:14.360Z,99.99
2018-05-27T04:35:14.105Z,99.82
2018-05-27T04:36:14.408Z,98.33
2018-05-27T04:37:14.414Z,95.5
2018-05-27T04:38:14.481Z,91.18
2018-05-27T04:39:14.466Z,89.4
2018-05-27T04:40:14.228Z,87.23
2018-05-27T04:41:14.511Z,84.77
2018-05-27T04:42:14.291Z,83.28
2018-05-27T04:44:14.605Z,81.77
2018-05-27T04:45:14.612Z,80.08
2018-05-27T04:46:14.658Z,80.27
2018-05-27T04:47:14.406Z,81.39
2018-05-27T04:48:29.353Z,80.81
2018-05-27T04:49:14.735Z,78.83
2018-05-27T04:50:14.749Z,77.51
2018-05-27T04:51:14.789Z,77.42
2018-05-27T04:52:14.798Z,76.07
2018-05-27T04:53:14.843Z,76.3
2018-05-27T04:54:14.855Z,76.84
2018-05-27T04:55:14.904Z,76.84
2018-05-27T04:56:14.661Z,77.76
2018-05-27T04:57:14.956Z,78.44
2018-05-27T04:58:14.982Z,78.31
2018-05-27T05:00:15.018Z,78.63
2018-05-27T05:01:15.049Z,78.92
2018-05-27T05:02:15.092Z,78.63
2018-05-27T05:03:15.108Z,77
2018-05-27T05:04:29.796Z,75.88
2018-05-27T05:05:15.172Z,75.82
2018-05-27T05:07:15.237Z,72.42
2018-05-27T05:08:15.267Z,69.94
2018-05-27T05:09:15.280Z,67.01
2018-05-27T05:10:15.330Z,66.98
2018-05-27T05:11:15.337Z,68.59
2018-05-27T05:12:15.122Z,69.3
2018-05-27T05:13:15.407Z,68.43
2018-05-27T05:14:15.444Z,66.27
2018-05-27T05:15:15.460Z,65.14
2018-05-27T05:16:15.560Z,64.59
2018-05-27T05:17:15.516Z,65.17
2018-05-27T05:18:15.563Z,64.2
2018-05-27T05:19:15.597Z,65.53
2018-05-27T05:20:30.271Z,66.85
2018-05-27T05:21:15.641Z,65.79
2018-05-27T05:22:15.781Z,65.14
2018-05-27T05:23:15.704Z,66.4
2018-05-27T05:24:15.802Z,65.88
2018-05-27T05:25:15.769Z,65.4
2018-05-27T05:26:15.812Z,65.24
2018-05-27T05:27:15.567Z,66.33
2018-05-27T05:28:15.860Z,67.53
2018-05-27T05:29:15.890Z,66.47
2018-05-27T05:30:15.674Z,65.59
2018-05-27T05:31:15.957Z,64.27
2018-05-27T05:32:15.735Z,63.82
2018-05-27T05:33:16.032Z,63.04
2018-05-27T05:34:16.063Z,62.95
2018-05-27T05:35:30.742Z,62.95
2018-05-27T05:36:16.142Z,62.2
2018-05-27T05:37:16.141Z,61.26
2018-05-27T05:38:16.181Z,60.78
2018-05-27T05:39:16.209Z,60.88
2018-05-27T05:40:16.256Z,60.52
2018-05-27T05:41:16.296Z,58.7
2018-05-27T05:43:16.091Z,59.22
2018-05-27T05:44:16.367Z,60.42
2018-05-27T05:45:16.417Z,61.36
2018-05-27T05:46:16.434Z,60.17
2018-05-27T05:47:16.221Z,60.42
2018-05-27T05:48:16.511Z,59.67
2018-05-27T05:49:16.664Z,57.76
2018-05-27T05:50:16.572Z,57.98
2018-05-27T05:51:16.339Z,58.61
2018-05-27T05:52:16.648Z,57.37
2018-05-27T05:53:16.411Z,57.04
2018-05-27T05:54:16.715Z,55.03
2018-05-27T05:55:16.734Z,53.89
2018-05-27T05:56:16.785Z,54.4
2018-05-27T05:58:16.851Z,53.5
2018-05-27T05:59:16.866Z,51.8
2018-05-27T06:00:16.918Z,51.92
2018-05-27T06:01:17.020Z,52.58
2018-05-27T06:02:16.984Z,52.58
2018-05-27T06:03:17.001Z,52.97
2018-05-27T06:04:17.056Z,52.28
2018-05-27T06:05:17.067Z,51.53
2018-05-27T06:06:17.119Z,49.51
2018-05-27T06:07:31.800Z,47.63
2018-05-27T06:08:17.169Z,47.38
2018-05-27T06:09:17.219Z,48.44
2018-05-27T06:10:17.257Z,49.56
2018-05-27T06:11:17.291Z,49.05
2018-05-27T06:12:17.309Z,48.29
2018-05-27T06:13:17.093Z,46.88
2018-05-27T06:15:17.169Z,45.94
2018-05-27T06:16:17.190Z,46.5
2018-05-27T06:17:17.502Z,46.6
2018-05-27T06:18:17.533Z,45.82
2018-05-27T06:19:17.579Z,46.04
2018-05-27T06:20:17.590Z,47.77
2018-05-27T06:21:17.365Z,48.02
2018-05-27T06:22:17.673Z,49.76
2018-05-27T06:23:32.362Z,49.93
2018-05-27T06:24:17.748Z,50.09
2018-05-27T06:26:17.546Z,46.97
2018-05-27T06:27:17.853Z,46.11
2018-05-27T06:28:17.894Z,45.92
2018-05-27T06:29:17.910Z,45.06
2018-05-27T06:30:17.953Z,45.67
2018-05-27T06:32:18.030Z,45.16
2018-05-27T06:33:18.055Z,44.71
2018-05-27T06:34:18.106Z,44.91
2018-05-27T06:35:18.137Z,43.93
2018-05-27T06:36:18.174Z,43.85
2018-05-27T06:37:18.194Z,42.21
2018-05-27T06:38:17.970Z,42.41
2018-05-27T06:39:32.937Z,43.88
2018-05-27T06:40:18.297Z,44.52
2018-05-27T06:41:18.354Z,45.57
2018-05-27T06:42:18.388Z,46.11
2018-05-27T06:43:18.415Z,47.87
2018-05-27T06:44:18.443Z,48.19
2018-05-27T06:45:18.482Z,47.83
2018-05-27T06:46:18.537Z,47.07
2018-05-27T06:47:18.557Z,45.75
2018-05-27T06:48:18.618Z,44.71
2018-05-27T06:49:18.629Z,44.24
2018-05-27T06:50:18.678Z,44.62
2018-05-27T06:51:18.857Z,46.06
2018-05-27T06:52:18.757Z,46.7
2018-05-27T06:53:18.777Z,46.8
2018-05-27T06:54:18.561Z,46.43
2018-05-27T06:55:33.508Z,45.75
2018-05-27T06:56:18.898Z,45.76
2018-05-27T06:57:18.919Z,44.03
2018-05-27T06:58:18.970Z,43.19
2018-05-27T06:59:19.006Z,41.94
2018-05-27T07:00:19.047Z,41.66
2018-05-27T07:01:19.069Z,41.58
2018-05-27T07:02:19.242Z,42.43
2018-05-27T07:03:19.157Z,42.43
2018-05-27T07:04:18.922Z,42.72
2018-05-27T07:05:19.229Z,44.76
2018-05-27T07:06:19.249Z,44.4
2018-05-27T07:07:19.305Z,44.71
2018-05-27T07:08:19.321Z,44.48
2018-05-27T07:09:19.375Z,44.32
2018-05-27T07:10:34.059Z,42.41
2018-05-27T07:11:19.451Z,41.17
2018-05-27T07:12:19.497Z,40.23
2018-05-27T07:13:19.505Z,39.86
2018-05-27T07:14:19.557Z,39.37
2018-05-27T07:15:19.587Z,40.47
2018-05-27T07:16:19.634Z,40.31
2018-05-27T07:17:19.659Z,40.9
2018-05-27T07:18:19.702Z,40.8
2018-05-27T07:19:19.744Z,41.96
2018-05-27T07:20:19.768Z,41.86
2018-05-27T07:22:19.860Z,41.37
2018-05-27T07:23:19.885Z,40.58
2018-05-27T07:24:19.914Z,39.94
2018-05-27T07:25:19.951Z,39.58
2018-05-27T07:26:20.005Z,38.72
2018-05-27T07:27:20.029Z,36.97
2018-05-27T07:28:20.081Z,38.95
2018-05-27T07:29:20.114Z,41.61
2018-05-27T07:30:20.141Z,43.07
2018-05-27T07:31:20.178Z,43.07
2018-05-27T07:32:20.304Z,42.68
2018-05-27T07:33:20.266Z,41.08
2018-05-27T07:34:20.028Z,40.92
2018-05-27T07:35:20.340Z,38.96
2018-05-27T07:36:20.363Z,37.74
2018-05-27T07:37:20.417Z,38.05
2018-05-27T07:38:20.441Z,36.77
2018-05-27T07:39:20.472Z,37.38
2018-05-27T07:40:20.528Z,37.84
2018-05-27T07:41:20.615Z,38.03
2018-05-27T07:42:35.253Z,37.55
2018-05-27T07:43:20.623Z,37.55
2018-05-27T07:44:20.681Z,38.84
2018-05-27T07:45:20.442Z,38.78
2018-05-27T07:46:20.732Z,38.11
2018-05-27T07:47:20.789Z,37.46
2018-05-27T07:48:20.810Z,37.63
2018-05-27T07:49:20.851Z,40.64
2018-05-27T07:50:20.898Z,42.46
2018-05-27T07:51:20.674Z,41.68
2018-05-27T07:52:20.976Z,41.13
2018-05-27T07:53:20.994Z,40.48
2018-05-27T07:54:21.053Z,39.61
2018-05-27T07:55:21.073Z,38.46
2018-05-27T07:56:21.112Z,37.4
2018-05-27T07:57:20.886Z,37.23
2018-05-27T07:58:35.850Z,36.36
2018-05-27T07:59:21.237Z,35.8
2018-05-27T08:00:21.254Z,34.46
2018-05-27T08:01:21.307Z,33.2
2018-05-27T08:02:21.333Z,33.2
2018-05-27T08:03:21.386Z,33.58
2018-05-27T08:04:21.409Z,33.89
2018-05-27T08:05:21.202Z,34.06
2018-05-27T08:06:21.482Z,34.75
2018-05-27T08:07:21.544Z,35.02
2018-05-27T08:08:21.556Z,34.84
2018-05-27T08:09:21.340Z,35.11
2018-05-27T08:10:21.634Z,34.33
2018-05-27T08:11:21.422Z,32.59
2018-05-27T08:12:21.448Z,33.89
2018-05-27T08:13:21.501Z,34.08
2018-05-27T08:14:36.444Z,36.22
2018-05-27T08:15:21.835Z,35.99
2018-05-27T08:16:21.863Z,35.03
2018-05-27T08:17:22.011Z,33.75
2018-05-27T08:18:21.932Z,33.08
2018-05-27T08:20:22.024Z,32.2
2018-05-27T08:22:22.099Z,33.17
2018-05-27T08:23:22.140Z,32.95
2018-05-27T08:24:22.171Z,33.23
2018-05-27T08:25:22.192Z,33.25
2018-05-27T08:26:22.232Z,33.25
2018-05-27T08:27:22.280Z,32.56
2018-05-27T08:28:22.320Z,32.08
2018-05-27T08:29:22.357Z,31.79
2018-05-27T08:30:37.041Z,31.2
2018-05-27T08:31:22.432Z,30.55
2018-05-27T08:32:22.456Z,30.75
2018-05-27T08:33:22.505Z,30.17
2018-05-27T08:34:22.265Z,29.3
2018-05-27T08:35:22.584Z,29.51
2018-05-27T08:36:22.615Z,28.51
2018-05-27T08:37:22.635Z,28.8
2018-05-27T08:38:22.690Z,29.28
2018-05-27T08:39:22.736Z,29.39
2018-05-27T08:40:22.488Z,29.79
2018-05-27T08:41:22.542Z,29.19
2018-05-27T08:42:22.819Z,29.97
2018-05-27T08:43:22.914Z,28.31
2018-05-27T08:44:22.896Z,28.8
2018-05-27T08:45:37.601Z,28.8
2018-05-27T08:46:22.986Z,29.5
2018-05-27T08:47:23.007Z,29.69
2018-05-27T08:48:23.057Z,30.06
2018-05-27T08:49:23.089Z,31
2018-05-27T08:50:23.140Z,30.98
2018-05-27T08:51:23.157Z,30.59
2018-05-27T08:52:23.209Z,30.98
2018-05-27T08:53:23.335Z,31.18
2018-05-27T08:54:23.276Z,30.43
2018-05-27T08:55:23.309Z,30.82
2018-05-27T08:57:23.136Z,30.43
2018-05-27T08:58:23.168Z,29.37
2018-05-27T08:59:23.445Z,29.89
2018-05-27T09:00:23.484Z,29
2018-05-27T09:01:23.844Z,29.78
2018-05-27T09:02:23.573Z,29.96
2018-05-27T09:03:23.610Z,30.16
2018-05-27T09:04:23.626Z,30.06
2018-05-27T09:05:23.679Z,30.34
2018-05-27T09:06:23.707Z,30.44
2018-05-27T09:07:23.477Z,29.75
2018-05-27T09:08:23.792Z,29.86
2018-05-27T09:09:23.809Z,30.07
2018-05-27T09:10:23.844Z,30.65
2018-05-27T09:11:23.905Z,31.31
2018-05-27T09:12:23.916Z,31.79
2018-05-27T09:13:23.969Z,32.26
2018-05-27T09:14:23.988Z,33.29
2018-05-27T09:16:24.057Z,35.75
2018-05-27T09:17:38.758Z,35.75
2018-05-27T09:18:24.154Z,35.78
2018-05-27T09:19:24.166Z,35.1
2018-05-27T09:20:24.219Z,34.15
2018-05-27T09:21:24.250Z,33.87
2018-05-27T09:22:24.276Z,33.2
2018-05-27T09:23:24.310Z,33.61
2018-05-27T09:24:24.342Z,33.2
2018-05-27T09:25:24.448Z,32.72
2018-05-27T09:26:24.418Z,32.62
2018-05-27T09:27:24.466Z,32.72
2018-05-27T09:28:24.229Z,31.38
2018-05-27T09:29:24.537Z,30.51
2018-05-27T09:30:24.571Z,30.13
2018-05-27T09:31:24.616Z,29.72
2018-05-27T09:32:24.678Z,29.75
2018-05-27T09:33:39.329Z,29.27
2018-05-27T09:34:24.699Z,29.96
2018-05-27T09:35:24.492Z,29.65
2018-05-27T09:36:24.771Z,29.86
2018-05-27T09:37:24.823Z,30.06
2018-05-27T09:38:24.835Z,30.17
2018-05-27T09:39:24.894Z,29.3
2018-05-27T09:40:24.660Z,29.69
2018-05-27T09:41:24.945Z,29.58
2018-05-27T09:42:24.996Z,29.58
2018-05-27T09:43:25.014Z,29.47
2018-05-27T09:44:25.065Z,29.27
2018-05-27T09:45:25.304Z,29.76
2018-05-27T09:46:25.137Z,30.13
2018-05-27T09:47:25.158Z,29.93
2018-05-27T09:48:25.192Z,30.32
2018-05-27T09:49:39.893Z,29.65
2018-05-27T09:50:25.259Z,29.66
2018-05-27T09:51:25.392Z,29.35
2018-05-27T09:52:25.344Z,28.59
2018-05-27T09:53:25.370Z,28.1
2018-05-27T09:54:25.424Z,27.52
2018-05-27T09:55:25.445Z,26.96
2018-05-27T09:56:25.489Z,27.14
2018-05-27T09:57:25.247Z,28.42
2018-05-27T09:58:25.559Z,28.91
2018-05-27T09:59:25.576Z,28.68
2018-05-27T10:00:25.364Z,28.59
2018-05-27T10:01:25.645Z,28.48
2018-05-27T10:02:25.697Z,28.58
2018-05-27T10:03:25.726Z,28.58
2018-05-27T10:04:25.752Z,28.88
2018-05-27T10:05:40.448Z,28.38
2018-05-27T10:06:25.838Z,28.95
2018-05-27T10:07:25.855Z,29.52
2018-05-27T10:08:25.915Z,29.24
2018-05-27T10:09:25.942Z,29.25
2018-05-27T10:10:25.977Z,29.55
2018-05-27T10:11:25.994Z,28.47
2018-05-27T10:13:26.080Z,28.65
2018-05-27T10:14:26.104Z,28.17
2018-05-27T10:15:26.192Z,28.09
2018-05-27T10:16:26.177Z,28.1
2018-05-27T10:17:26.222Z,29.52
2018-05-27T10:18:26.236Z,30.17
2018-05-27T10:19:26.288Z,29.87
2018-05-27T10:20:41.069Z,30.28
2018-05-27T10:21:26.359Z,29.79
2018-05-27T10:22:26.391Z,30.65
2018-05-27T10:23:26.415Z,30.74
2018-05-27T10:24:26.184Z,30.74
2018-05-27T10:25:26.477Z,30.85
2018-05-27T10:26:26.529Z,31.92
2018-05-27T10:27:26.546Z,31.5
2018-05-27T10:28:26.596Z,31.41
2018-05-27T10:29:26.369Z,31.71
2018-05-27T10:30:26.649Z,31.81
2018-05-27T10:31:26.700Z,32.89
2018-05-27T10:33:26.755Z,33.62
2018-05-27T10:34:26.527Z,33.92
2018-05-27T10:35:26.823Z,32.86
2018-05-27T10:36:26.871Z,33.46
2018-05-27T10:37:26.890Z,34.98
2018-05-27T10:38:26.943Z,35.25
2018-05-27T10:39:26.694Z,34.86
2018-05-27T10:40:26.743Z,34.01
2018-05-27T10:41:26.767Z,34.39
2018-05-27T10:42:26.805Z,35.47
2018-05-27T10:43:27.107Z,35.45
2018-05-27T10:44:26.867Z,36
2018-05-27T10:45:27.156Z,35.89
2018-05-27T10:46:27.211Z,36.79
2018-05-27T10:47:27.284Z,36
2018-05-27T10:48:27.274Z,37.08
2018-05-27T10:49:27.327Z,36.28
2018-05-27T10:50:27.078Z,37.45
2018-05-27T10:51:27.358Z,38.89
2018-05-27T10:52:42.058Z,39.06
2018-05-27T10:53:27.425Z,38.67
2018-05-27T10:54:27.212Z,38.3
2018-05-27T10:55:27.491Z,37.35
2018-05-27T10:56:27.551Z,37.27
2018-05-27T10:57:27.573Z,37.37
2018-05-27T10:58:27.343Z,37.95
2018-05-27T10:59:27.633Z,38.59
2018-05-27T11:00:27.672Z,38.3
2018-05-27T11:01:27.687Z,38.38
2018-05-27T11:02:27.737Z,38.49
2018-05-27T11:03:27.756Z,38.96
2018-05-27T11:04:27.540Z,39.45
2018-05-27T11:05:27.832Z,39.06
2018-05-27T11:06:27.605Z,38.98
2018-05-27T11:07:27.623Z,38.28
2018-05-27T11:08:42.578Z,38.28
2018-05-27T11:09:27.706Z,38.22
2018-05-27T11:10:28.002Z,38.61
2018-05-27T11:11:28.035Z,39.2
2018-05-27T11:12:28.057Z,38.89
2018-05-27T11:13:28.094Z,38.61
2018-05-27T11:14:27.853Z,39.29
2018-05-27T11:15:28.141Z,39.1
2018-05-27T11:16:28.191Z,39.18
2018-05-27T11:17:28.211Z,39.08
2018-05-27T11:18:28.256Z,39.49
2018-05-27T11:19:28.112Z,38.89
2018-05-27T11:20:28.320Z,38.61
2018-05-27T11:21:28.338Z,38.61
2018-05-27T11:22:28.390Z,38.82
2018-05-27T11:23:28.418Z,38.53
2018-05-27T11:24:43.092Z,38.45
2018-05-27T11:25:28.462Z,38.34
2018-05-27T11:26:28.511Z,39.29
2018-05-27T11:27:28.532Z,40.06
2018-05-27T11:28:28.576Z,40.33
2018-05-27T11:29:28.601Z,40.23
2018-05-27T11:30:28.639Z,40.14
2018-05-27T11:31:28.660Z,38.48
2018-05-27T11:32:28.426Z,38.4
2018-05-27T11:33:28.732Z,38.51
2018-05-27T11:34:28.759Z,38.02
2018-05-27T11:35:28.849Z,37.06
2018-05-27T11:36:28.551Z,36.47
2018-05-27T11:37:28.597Z,36.59
2018-05-27T11:38:28.618Z,36.3
2018-05-27T11:39:28.906Z,36.61
2018-05-27T11:40:43.604Z,36.43
2018-05-27T11:41:28.984Z,36.9
2018-05-27T11:43:29.036Z,38.69
2018-05-27T11:44:29.085Z,39.26
2018-05-27T11:45:29.096Z,39.53
2018-05-27T11:46:28.871Z,39.72
2018-05-27T11:47:29.171Z,39.75
2018-05-27T11:48:29.207Z,39.45
2018-05-27T11:49:28.962Z,39.28
2018-05-27T11:50:29.272Z,38.1
2018-05-27T11:51:29.291Z,37.52
2018-05-27T11:53:29.096Z,37.43
2018-05-27T11:54:29.382Z,37.24
2018-05-27T11:55:44.073Z,36.67
2018-05-27T11:56:29.442Z,36.18
2018-05-27T11:57:29.489Z,35.69
2018-05-27T11:58:29.505Z,36
2018-05-27T11:59:29.557Z,35.63
2018-05-27T12:00:29.586Z,35.61
2018-05-27T12:01:29.344Z,35.61
2018-05-27T12:02:29.648Z,35.71
2018-05-27T12:04:29.700Z,34.84
2018-05-27T12:05:29.724Z,34.38
2018-05-27T12:06:29.774Z,33.79
2018-05-27T12:07:29.806Z,33.1
2018-05-27T12:08:29.818Z,33.29
2018-05-27T12:09:30.145Z,33.51
2018-05-27T12:10:29.885Z,33.8
2018-05-27T12:11:29.932Z,33.8
2018-05-27T12:12:29.943Z,33.98
2018-05-27T12:13:29.993Z,34.38
2018-05-27T12:14:30.029Z,33.8
2018-05-27T12:15:30.045Z,34.49
2018-05-27T12:16:30.089Z,34.98
2018-05-27T12:18:30.135Z,34.98
2018-05-27T12:19:30.184Z,35.55
2018-05-27T12:20:30.197Z,36.51
2018-05-27T12:21:30.234Z,35.91
2018-05-27T12:22:30.267Z,35.81
2018-05-27T12:23:30.310Z,36.3
2018-05-27T12:24:30.082Z,36.4
2018-05-27T12:25:30.363Z,37.18
2018-05-27T12:26:30.399Z,37.26
2018-05-27T12:27:45.094Z,37.47
2018-05-27T12:28:30.467Z,37.26
2018-05-27T12:29:30.227Z,36.94
2018-05-27T12:30:30.528Z,36.44
2018-05-27T12:31:30.549Z,35.36
2018-05-27T12:34:30.652Z,41.22
2018-05-27T12:35:30.670Z,42
2018-05-27T12:36:30.714Z,42.86
2018-05-27T12:37:30.467Z,42.65
2018-05-27T12:39:30.797Z,47.52
2018-05-27T12:40:30.836Z,50.8
2018-05-27T12:41:30.865Z,53.3
2018-05-27T12:42:30.887Z,53.83
2018-05-27T12:43:45.580Z,57.09
2018-05-27T12:44:30.956Z,62.59
2018-05-27T12:45:30.969Z,63.04
2018-05-27T12:46:31.014Z,62.85
2018-05-27T12:47:31.128Z,63.69
2018-05-27T12:48:31.061Z,65.98
2018-05-27T12:49:31.092Z,73.1
2018-05-27T12:50:31.132Z,75.68
2018-05-27T12:51:31.161Z,77.55
2018-05-27T12:52:31.176Z,78.42
2018-05-27T12:53:31.210Z,79.29
2018-05-27T12:54:31.229Z,81.75
2018-05-27T12:55:31.276Z,80.69
2018-05-27T12:56:31.285Z,78.85
2018-05-27T12:57:31.334Z,77.59
2018-05-27T12:58:31.395Z,77.11
2018-05-27T12:59:46.036Z,80.69
2018-05-27T13:00:31.418Z,78.66
2018-05-27T13:01:31.527Z,76.04
2018-05-27T13:02:31.475Z,75.56
2018-05-27T13:03:31.227Z,73.97
2018-05-27T13:04:31.531Z,77.4
2018-05-27T13:05:31.561Z,71.11
2018-05-27T13:06:31.690Z,73.97
2018-05-27T13:08:31.374Z,73.27
2018-05-27T13:10:31.688Z,71.66
2018-05-27T13:11:31.730Z,71.08
2018-05-27T13:12:31.748Z,71.56
2018-05-27T13:13:31.777Z,73.02
2018-05-27T13:14:31.553Z,71.89
2018-05-27T13:15:46.494Z,71.89
2018-05-27T13:16:32.304Z,72.77
2018-05-27T13:17:31.640Z,73.83
2018-05-27T13:18:31.654Z,75.03
2018-05-27T13:19:31.962Z,73.22
2018-05-27T13:20:31.973Z,71.25
2018-05-27T13:21:32.023Z,69.79
2018-05-27T13:22:32.046Z,70.28
2018-05-27T13:23:32.057Z,72.51
2018-05-27T13:24:32.105Z,69.41
2018-05-27T13:25:32.116Z,66.5
2018-05-27T13:26:32.162Z,66.6
2018-05-27T13:27:32.179Z,67.57
2018-05-27T13:28:31.958Z,65.34
2018-05-27T13:29:32.251Z,64.95
2018-05-27T13:30:46.929Z,67.76
2018-05-27T13:31:32.309Z,68.66
2018-05-27T13:32:32.419Z,62.95
2018-05-27T13:33:32.370Z,63.04
2018-05-27T13:34:32.379Z,62.1
2018-05-27T13:35:32.425Z,63.56
2018-05-27T13:36:32.454Z,61.52
2018-05-27T13:37:32.484Z,60
2018-05-27T13:38:32.236Z,59.97
2018-05-27T13:39:32.541Z,63.17
2018-05-27T13:40:32.554Z,67.92